createdAt,value
2022-10-21T00:04:19.381Z,14.6
2022-10-21T00:18:46.476Z,14.8
2022-10-21T00:33:26.447Z,14.9
2022-10-21T00:47:56.927Z,14.9
2022-10-21T01:02:30.640Z,15
2022-10-21T01:17:20.816Z,14.8
2022-10-21T01:31:47.782Z,14.6
2022-10-21T01:46:20.943Z,14.2
2022-10-21T02:00:54.568Z,14.2
2022-10-21T02:15:33.346Z,14.2
2022-10-21T02:30:10.680Z,14.6
2022-10-21T02:44:41.094Z,14.5
2022-10-21T02:59:15.406Z,14.6
2022-10-21T03:13:48.590Z,14.5
2022-10-21T03:28:21.792Z,14.2
2022-10-21T03:42:55.174Z,14.1
2022-10-21T03:57:27.967Z,14
2022-10-21T04:12:01.115Z,13.9
2022-10-21T04:26:33.722Z,13.8
2022-10-21T04:41:07.799Z,13.8
2022-10-21T04:55:40.753Z,13.7
2022-10-21T05:10:14.165Z,13.8
2022-10-21T05:24:47.545Z,13.9
2022-10-21T05:39:21.329Z,13.9
2022-10-21T05:53:57.698Z,14.1
2022-10-21T06:08:27.349Z,14.1
2022-10-21T06:23:01.148Z,14.2
2022-10-21T06:37:33.046Z,14.2
2022-10-21T06:52:07.383Z,14.3
2022-10-21T07:06:47.904Z,14.4
2022-10-21T07:21:23.907Z,14.6
2022-10-21T07:35:54.550Z,14.9
2022-10-21T07:50:28.246Z,15.1
2022-10-21T08:05:03.139Z,15.3
2022-10-21T08:19:37.164Z,15.5
2022-10-21T08:34:11.108Z,15.6
2022-10-21T08:48:45.053Z,15.6
2022-10-21T09:03:20.645Z,15.7
2022-10-21T09:17:56.266Z,15.6
2022-10-21T09:47:01.889Z,15.8
2022-10-21T10:01:35.730Z,15.8
2022-10-21T10:16:08.385Z,15.8
2022-10-21T10:30:43.051Z,15.9
2022-10-21T10:45:16.403Z,15.7
2022-10-21T10:59:50.764Z,15.9
2022-10-21T11:14:25.675Z,16
2022-10-21T11:29:06.185Z,16
2022-10-21T11:43:37.047Z,16.2
2022-10-21T11:58:13.584Z,16.5
2022-10-21T12:12:48.980Z,16.9
2022-10-21T12:27:22.611Z,17
2022-10-21T12:41:56.791Z,17.5
2022-10-21T12:56:31.918Z,17.5
2022-10-21T13:11:04.973Z,17.5
2022-10-21T13:25:37.116Z,17.4
2022-10-21T13:40:15.782Z,17.4
2022-10-21T13:54:51.950Z,17.6
2022-10-21T14:09:22.535Z,17.4
2022-10-21T14:23:55.021Z,17.5
2022-10-21T14:38:26.127Z,17.7
2022-10-21T14:52:59.805Z,17.8
2022-10-21T15:07:34.075Z,17.8
2022-10-21T15:22:09.971Z,17.7
2022-10-21T15:36:42.845Z,17.5
2022-10-21T15:51:16.785Z,17.4
2022-10-21T16:05:52.253Z,17.1
2022-10-21T16:20:24.874Z,17
2022-10-21T16:35:03.594Z,16.7
2022-10-21T16:49:32.199Z,16.4
2022-10-21T17:04:10.943Z,16.1
2022-10-21T17:18:40.032Z,16.1
2022-10-21T17:33:14.826Z,16
2022-10-21T17:47:45.554Z,15.7
2022-10-21T18:02:18.713Z,15.6
2022-10-21T18:16:52.761Z,15.5
2022-10-21T18:31:26.122Z,15.4
2022-10-21T18:45:58.651Z,15
2022-10-21T19:00:32.107Z,14.8
2022-10-21T19:15:04.428Z,14.3
2022-10-21T19:29:38.727Z,14.1
2022-10-21T19:44:11.938Z,14.3
2022-10-21T19:58:45.316Z,14.5
2022-10-21T20:13:19.098Z,14
2022-10-21T20:27:58.492Z,13.5
2022-10-21T20:42:31.796Z,13.9
2022-10-21T20:57:02.032Z,13.4
2022-10-21T21:11:34.464Z,13.7
2022-10-21T21:26:08.230Z,13.8
2022-10-21T21:40:42.763Z,13.9
2022-10-21T21:55:16.189Z,13.3
2022-10-21T22:09:49.634Z,13.5
2022-10-21T22:24:23.900Z,13.7
2022-10-21T22:38:56.970Z,12.8
2022-10-21T22:53:30.926Z,12.9
2022-10-21T23:07:59.842Z,12.3
2022-10-21T23:22:32.999Z,12.7
2022-10-21T23:37:07.743Z,13.3
2022-10-21T23:51:41.610Z,13.2
